Time;durP1;ratioP1;P1;durP2;ratioP2;P2;SDS_P1;SDS_P2;PMS_P1;PMS_P2;Temp;Humidity;BMP_temperature;BMP_pressure;BME280_temperature;BME280_humidity;BME280_pressure;Samples;Min_cycle;Max_cycle;Signal;HPM_P1;HPM_P2
2023/09/26 00:00:25;;;;;;;4.70;2.17;;;;;;;;;;2102934;28;20497;-63
2023/09/26 00:01:44;;;;;;;2.22;1.75;;;;;;;;;;2103742;28;20039;-62
2023/09/26 00:03:05;;;;;;;3.13;1.88;;;;;;;;;;2104025;28;20154;-63
2023/09/26 00:04:24;;;;;;;4.28;2.00;;;;;;;;;;2103953;28;20103;-63
2023/09/26 00:05:43;;;;;;;2.20;2.10;;;;;;;;;;2104212;28;20020;-63
2023/09/26 00:07:02;;;;;;;5.45;2.65;;;;;;;;;;2105185;28;20091;-63
2023/09/26 00:08:21;;;;;;;3.78;2.40;;;;;;;;;;2104991;28;20052;-63
2023/09/26 00:09:40;;;;;;;4.15;2.33;;;;;;;;;;2105617;28;20036;-63
2023/09/26 00:10:59;;;;;;;2.88;2.35;;;;;;;;;;2104360;28;20032;-63
2023/09/26 00:12:18;;;;;;;4.05;2.08;;;;;;;;;;2104089;28;20493;-61
2023/09/26 00:13:38;;;;;;;3.08;2.22;;;;;;;;;;2103829;28;20023;-63
2023/09/26 00:14:57;;;;;;;4.38;2.40;;;;;;;;;;2103316;28;20028;-63
2023/09/26 00:16:16;;;;;;;3.03;2.70;;;;;;;;;;2103369;28;20036;-63
2023/09/26 00:17:35;;;;;;;2.83;1.98;;;;;;;;;;2104434;28;20032;-63
2023/09/26 00:18:54;;;;;;;2.45;2.08;;;;;;;;;;2105529;28;20108;-63
2023/09/26 00:20:37;;;;;;;2.63;2.22;;;;;;;;;;2103980;28;20400;-63
2023/09/26 00:21:52;;;;;;;2.47;1.83;;;;;;;;;;2103889;28;20024;-63
2023/09/26 00:23:11;;;;;;;2.08;1.95;;;;;;;;;;2102782;28;20032;-63
2023/09/26 00:24:30;;;;;;;3.40;2.33;;;;;;;;;;2102882;28;20043;-63
2023/09/26 00:25:49;;;;;;;3.05;2.75;;;;;;;;;;2104968;28;20048;-63
2023/09/26 00:27:08;;;;;;;4.25;2.38;;;;;;;;;;2104553;28;20035;-63
2023/09/26 00:28:27;;;;;;;2.53;1.80;;;;;;;;;;2103411;28;20356;-63
2023/09/26 00:29:47;;;;;;;2.50;1.98;;;;;;;;;;2102095;28;21594;-63
2023/09/26 00:31:06;;;;;;;2.85;1.80;;;;;;;;;;2103635;28;20028;-63
2023/09/26 00:32:25;;;;;;;2.92;2.33;;;;;;;;;;2104243;28;20387;-63
2023/09/26 00:33:44;;;;;;;6.28;2.90;;;;;;;;;;2105211;28;20125;-61
2023/09/26 00:35:04;;;;;;;4.18;2.50;;;;;;;;;;2103980;28;20153;-63
2023/09/26 00:36:22;;;;;;;4.70;2.50;;;;;;;;;;2102742;28;20052;-63
2023/09/26 00:37:42;;;;;;;3.95;2.30;;;;;;;;;;2103777;28;20016;-63
2023/09/26 00:39:01;;;;;;;8.00;1.98;;;;;;;;;;2104906;28;20024;-63
2023/09/26 00:40:21;;;;;;;5.55;2.70;;;;;;;;;;2104349;28;20021;-63
2023/09/26 00:41:39;;;;;;;4.25;2.20;;;;;;;;;;2104799;28;20032;-63
2023/09/26 00:42:59;;;;;;;3.20;2.05;;;;;;;;;;2103923;28;20024;-63
2023/09/26 00:44:18;;;;;;;4.03;2.70;;;;;;;;;;2103694;28;20032;-61
2023/09/26 00:45:37;;;;;;;2.67;2.20;;;;;;;;;;2104708;28;20047;-62
2023/09/26 00:46:57;;;;;;;2.45;2.25;;;;;;;;;;2102593;28;20025;-62
2023/09/26 00:48:16;;;;;;;5.88;2.60;;;;;;;;;;2100537;28;20103;-63
2023/09/26 00:49:36;;;;;;;2.33;2.13;;;;;;;;;;2103980;28;20404;-62
2023/09/26 00:50:56;;;;;;;2.88;2.13;;;;;;;;;;2104267;28;20036;-62
2023/09/26 00:52:15;;;;;;;4.47;2.60;;;;;;;;;;2104169;28;20396;-63
2023/09/26 00:53:37;;;;;;;2.70;2.45;;;;;;;;;;2105118;28;20314;-62
2023/09/26 00:54:58;;;;;;;5.18;2.15;;;;;;;;;;2104090;28;21139;-62
2023/09/26 00:56:17;;;;;;;4.50;2.60;;;;;;;;;;2105727;28;20036;-63
2023/09/26 00:57:35;;;;;;;4.22;2.25;;;;;;;;;;2103160;28;20032;-63
2023/09/26 00:58:55;;;;;;;4.32;2.47;;;;;;;;;;2104413;28;20028;-64
2023/09/26 01:00:15;;;;;;;2.92;2.53;;;;;;;;;;2102430;28;20024;-62
2023/09/26 01:01:35;;;;;;;2.45;2.20;;;;;;;;;;2102776;28;20073;-62
2023/09/26 01:02:54;;;;;;;5.47;2.20;;;;;;;;;;2098932;28;20055;-63
2023/09/26 01:04:14;;;;;;;4.18;2.47;;;;;;;;;;2103396;28;20028;-62
2023/09/26 01:05:32;;;;;;;3.38;2.28;;;;;;;;;;2102827;28;20036;-62
2023/09/26 01:06:51;;;;;;;4.70;2.30;;;;;;;;;;2103206;28;20099;-62
2023/09/26 01:08:11;;;;;;;2.20;2.10;;;;;;;;;;2103517;28;20064;-62
2023/09/26 01:09:29;;;;;;;3.42;2.20;;;;;;;;;;2103493;28;20021;-62
2023/09/26 01:10:48;;;;;;;3.00;2.45;;;;;;;;;;2103046;28;20032;-62
2023/09/26 01:12:08;;;;;;;2.42;2.22;;;;;;;;;;2104102;28;20107;-63
2023/09/26 01:13:27;;;;;;;4.53;2.30;;;;;;;;;;2102754;28;21320;-62
2023/09/26 01:14:46;;;;;;;6.40;2.90;;;;;;;;;;2102482;28;20040;-62
2023/09/26 01:16:15;;;;;;;2.70;2.50;;;;;;;;;;2104844;28;20032;-63
2023/09/26 01:17:34;;;;;;;2.92;2.28;;;;;;;;;;2104252;28;20484;-63
2023/09/26 01:18:53;;;;;;;2.80;2.38;;;;;;;;;;2103831;28;20078;-62
2023/09/26 01:20:15;;;;;;;2.95;2.22;;;;;;;;;;2103940;28;20036;-63
2023/09/26 01:21:35;;;;;;;3.15;2.60;;;;;;;;;;2103210;28;20054;-63
2023/09/26 01:22:55;;;;;;;2.45;2.22;;;;;;;;;;2104526;28;20020;-63
2023/09/26 01:24:17;;;;;;;2.63;2.33;;;;;;;;;;2104364;28;20020;-63
2023/09/26 01:25:36;;;;;;;2.28;2.08;;;;;;;;;;2104244;28;20020;-63
2023/09/26 01:26:55;;;;;;;3.33;2.67;;;;;;;;;;2103802;28;20020;-63
2023/09/26 01:28:15;;;;;;;2.55;2.35;;;;;;;;;;2102197;28;20021;-63
2023/09/26 01:29:34;;;;;;;3.10;2.17;;;;;;;;;;2105065;28;20415;-63
2023/09/26 01:30:53;;;;;;;4.18;2.58;;;;;;;;;;2103723;28;20036;-62
2023/09/26 01:32:12;;;;;;;3.17;2.58;;;;;;;;;;2104633;28;20039;-63
2023/09/26 01:33:32;;;;;;;2.72;2.53;;;;;;;;;;2103764;28;20466;-63
2023/09/26 01:34:51;;;;;;;2.80;2.60;;;;;;;;;;2103577;28;20024;-62
2023/09/26 01:36:10;;;;;;;2.88;2.42;;;;;;;;;;2103547;28;20032;-62
2023/09/26 01:37:29;;;;;;;2.50;2.30;;;;;;;;;;2104097;28;20118;-63
2023/09/26 01:38:48;;;;;;;6.10;2.83;;;;;;;;;;2105008;28;20024;-63
2023/09/26 01:40:09;;;;;;;4.75;2.50;;;;;;;;;;2104770;28;20032;-62
2023/09/26 01:41:28;;;;;;;2.72;2.40;;;;;;;;;;2104529;28;20024;-63
2023/09/26 01:42:47;;;;;;;2.78;2.40;;;;;;;;;;2104651;28;20051;-63
2023/09/26 01:44:06;;;;;;;2.75;2.55;;;;;;;;;;2105304;28;20076;-62
2023/09/26 01:45:25;;;;;;;5.28;2.60;;;;;;;;;;2102955;28;20085;-63
2023/09/26 01:46:44;;;;;;;2.90;2.60;;;;;;;;;;2104590;28;20056;-63
2023/09/26 01:48:05;;;;;;;2.70;2.45;;;;;;;;;;2102457;28;20020;-62
2023/09/26 01:49:24;;;;;;;4.47;2.70;;;;;;;;;;2103943;28;20055;-63
2023/09/26 01:50:44;;;;;;;3.30;2.42;;;;;;;;;;2102807;28;20027;-63
2023/09/26 01:52:03;;;;;;;3.55;2.80;;;;;;;;;;2102710;28;20036;-63
2023/09/26 01:53:21;;;;;;;3.63;2.33;;;;;;;;;;2104084;28;20085;-63
2023/09/26 01:54:41;;;;;;;3.03;2.70;;;;;;;;;;2102222;28;20027;-61
2023/09/26 01:56:00;;;;;;;3.05;2.45;;;;;;;;;;2102242;28;20572;-62
2023/09/26 01:57:19;;;;;;;2.58;2.38;;;;;;;;;;2101465;28;20409;-63
2023/09/26 01:58:38;;;;;;;4.13;2.60;;;;;;;;;;2100108;28;20044;-61
2023/09/26 01:59:59;;;;;;;3.90;2.38;;;;;;;;;;2101702;28;20103;-64
2023/09/26 02:01:18;;;;;;;3.38;3.00;;;;;;;;;;2101720;28;20316;-62
2023/09/26 02:02:41;;;;;;;6.22;2.95;;;;;;;;;;2100249;28;20507;-61
2023/09/26 02:04:00;;;;;;;3.72;2.65;;;;;;;;;;2102487;28;20028;-63
2023/09/26 02:05:20;;;;;;;3.00;2.53;;;;;;;;;;2099807;28;20032;-63
2023/09/26 02:06:39;;;;;;;2.72;2.50;;;;;;;;;;2101250;28;20073;-62
2023/09/26 02:07:58;;;;;;;4.28;2.55;;;;;;;;;;2103014;28;20024;-63
2023/09/26 02:09:17;;;;;;;4.53;2.90;;;;;;;;;;2104033;28;20032;-61
2023/09/26 02:10:36;;;;;;;2.60;2.40;;;;;;;;;;2100266;28;20033;-62
2023/09/26 02:11:55;;;;;;;3.00;2.45;;;;;;;;;;2104432;28;20456;-62
2023/09/26 02:13:14;;;;;;;6.57;2.78;;;;;;;;;;2104265;28;20447;-62
2023/09/26 02:14:33;;;;;;;4.45;2.90;;;;;;;;;;2102123;28;20040;-62
2023/09/26 02:15:52;;;;;;;3.10;2.30;;;;;;;;;;2103769;28;20036;-62
2023/09/26 02:17:11;;;;;;;4.72;2.60;;;;;;;;;;2105368;28;20054;-62
2023/09/26 02:18:30;;;;;;;3.40;2.80;;;;;;;;;;2104187;28;20028;-62
2023/09/26 02:19:49;;;;;;;3.00;2.80;;;;;;;;;;2104332;28;20447;-62
2023/09/26 02:21:14;;;;;;;5.88;2.38;;;;;;;;;;2105750;28;20476;-63
2023/09/26 02:22:37;;;;;;;4.90;2.80;;;;;;;;;;2102561;28;20037;-62
2023/09/26 02:23:55;;;;;;;2.40;2.22;;;;;;;;;;2104354;28;20032;-63
2023/09/26 02:25:15;;;;;;;3.38;2.55;;;;;;;;;;2102188;28;20036;-63
2023/09/26 02:26:34;;;;;;;2.85;2.50;;;;;;;;;;2104894;28;20024;-63
2023/09/26 02:27:53;;;;;;;2.92;2.72;;;;;;;;;;2103904;28;20468;-63
2023/09/26 02:29:12;;;;;;;4.70;2.75;;;;;;;;;;2102811;28;20043;-63
2023/09/26 02:30:31;;;;;;;2.85;2.60;;;;;;;;;;2103452;28;20036;-65
2023/09/26 02:31:49;;;;;;;3.72;2.58;;;;;;;;;;2104392;28;20036;-63
2023/09/26 02:33:08;;;;;;;4.18;2.67;;;;;;;;;;2103738;28;20036;-63
2023/09/26 02:34:28;;;;;;;2.38;2.17;;;;;;;;;;2103880;28;20361;-63
2023/09/26 02:35:46;;;;;;;3.00;2.70;;;;;;;;;;2101762;28;20028;-62
2023/09/26 02:37:05;;;;;;;2.92;2.63;;;;;;;;;;2104121;28;20051;-62
2023/09/26 02:38:25;;;;;;;4.15;2.70;;;;;;;;;;2102384;28;20505;-62
2023/09/26 02:39:44;;;;;;;4.65;2.58;;;;;;;;;;2104528;28;20028;-62
2023/09/26 02:41:03;;;;;;;3.90;2.78;;;;;;;;;;2103453;28;20012;-62
2023/09/26 02:42:22;;;;;;;2.72;2.42;;;;;;;;;;2103448;28;20028;-61
2023/09/26 02:43:41;;;;;;;4.05;2.67;;;;;;;;;;2102758;28;20032;-63
2023/09/26 02:45:00;;;;;;;4.32;3.17;;;;;;;;;;2102006;28;20025;-63
2023/09/26 02:46:19;;;;;;;4.57;3.15;;;;;;;;;;2101977;28;20032;-63
2023/09/26 02:47:38;;;;;;;2.58;2.35;;;;;;;;;;2099864;28;20032;-62
2023/09/26 02:48:57;;;;;;;2.70;2.50;;;;;;;;;;2103081;28;21077;-62
2023/09/26 02:50:16;;;;;;;3.35;2.50;;;;;;;;;;2103481;28;20060;-62
2023/09/26 02:51:35;;;;;;;3.20;2.80;;;;;;;;;;2102430;28;20032;-63
2023/09/26 02:52:53;;;;;;;3.28;2.70;;;;;;;;;;2105873;28;20396;-62
2023/09/26 02:54:12;;;;;;;3.97;3.08;;;;;;;;;;2105665;28;20107;-62
2023/09/26 02:55:31;;;;;;;2.83;2.63;;;;;;;;;;2104866;28;20036;-63
2023/09/26 02:56:50;;;;;;;4.43;2.45;;;;;;;;;;2106150;28;20031;-61
2023/09/26 02:58:09;;;;;;;4.53;3.00;;;;;;;;;;2104641;28;20036;-63
2023/09/26 02:59:28;;;;;;;3.13;2.80;;;;;;;;;;2107234;28;20104;-62
2023/09/26 03:00:50;;;;;;;10.07;2.80;;;;;;;;;;2106582;28;20481;-62
2023/09/26 03:02:09;;;;;;;4.40;2.58;;;;;;;;;;2106114;28;20036;-62
2023/09/26 03:03:29;;;;;;;2.95;2.67;;;;;;;;;;2104744;28;20020;-63
2023/09/26 03:04:48;;;;;;;3.65;2.80;;;;;;;;;;2104020;28;20046;-62
2023/09/26 03:06:08;;;;;;;2.97;2.75;;;;;;;;;;2105330;28;20454;-62
2023/09/26 03:07:27;;;;;;;3.35;2.70;;;;;;;;;;2104657;28;20040;-62
2023/09/26 03:08:46;;;;;;;4.95;2.47;;;;;;;;;;2105452;28;20020;-62
2023/09/26 03:10:05;;;;;;;4.20;2.60;;;;;;;;;;2105695;28;20064;-62
2023/09/26 03:11:25;;;;;;;2.70;2.50;;;;;;;;;;2104341;28;20099;-62
2023/09/26 03:12:44;;;;;;;3.15;2.67;;;;;;;;;;2105421;28;20012;-62
2023/09/26 03:14:04;;;;;;;4.38;2.45;;;;;;;;;;2105980;28;20484;-62
2023/09/26 03:15:22;;;;;;;6.30;3.20;;;;;;;;;;2105605;28;20036;-60
2023/09/26 03:16:41;;;;;;;5.60;2.92;;;;;;;;;;2105506;28;20032;-62
2023/09/26 03:18:01;;;;;;;5.43;2.75;;;;;;;;;;2105234;28;20036;-62
2023/09/26 03:19:23;;;;;;;3.90;3.00;;;;;;;;;;2102707;28;20024;-62
2023/09/26 03:20:42;;;;;;;4.65;2.90;;;;;;;;;;2106656;28;20025;-62
2023/09/26 03:22:02;;;;;;;3.60;3.30;;;;;;;;;;2105374;28;20052;-62
2023/09/26 03:23:22;;;;;;;3.83;2.80;;;;;;;;;;2103118;28;20520;-63
2023/09/26 03:24:40;;;;;;;3.38;3.08;;;;;;;;;;2105334;28;20067;-62
2023/09/26 03:25:59;;;;;;;3.65;2.78;;;;;;;;;;2104785;28;20020;-63
2023/09/26 03:27:18;;;;;;;3.53;3.13;;;;;;;;;;2105013;28;20048;-62
2023/09/26 03:28:37;;;;;;;3.17;2.88;;;;;;;;;;2104476;28;20048;-62
2023/09/26 03:29:56;;;;;;;4.45;3.15;;;;;;;;;;2103681;28;20025;-62
2023/09/26 03:31:15;;;;;;;4.13;2.78;;;;;;;;;;2104706;28;20427;-63
2023/09/26 03:32:34;;;;;;;2.97;2.78;;;;;;;;;;2105097;28;20052;-63
2023/09/26 03:33:53;;;;;;;3.22;2.70;;;;;;;;;;2105489;28;20485;-62
2023/09/26 03:35:12;;;;;;;5.05;2.67;;;;;;;;;;2105346;28;20032;-63
2023/09/26 03:36:31;;;;;;;3.88;2.70;;;;;;;;;;2105929;28;20458;-63
2023/09/26 03:37:50;;;;;;;3.55;2.92;;;;;;;;;;2102602;28;20636;-63
2023/09/26 03:39:09;;;;;;;3.00;2.80;;;;;;;;;;2101862;28;21322;-61
2023/09/26 03:40:28;;;;;;;4.57;3.28;;;;;;;;;;2102227;28;20032;-62
2023/09/26 03:41:47;;;;;;;4.43;2.95;;;;;;;;;;2102143;28;20634;-63
2023/09/26 03:43:06;;;;;;;3.60;3.15;;;;;;;;;;2102495;28;20032;-63
2023/09/26 03:44:25;;;;;;;3.70;2.72;;;;;;;;;;2100251;28;20032;-63
2023/09/26 03:45:44;;;;;;;3.45;2.97;;;;;;;;;;2102647;28;20043;-63
2023/09/26 03:47:03;;;;;;;5.65;2.85;;;;;;;;;;2101725;28;20024;-63
2023/09/26 03:48:22;;;;;;;3.38;3.08;;;;;;;;;;2103932;28;20652;-63
2023/09/26 03:49:41;;;;;;;6.80;2.97;;;;;;;;;;2104080;28;20107;-63
2023/09/26 03:51:09;;;;;;;3.40;3.10;;;;;;;;;;2104710;28;20091;-62
2023/09/26 03:52:28;;;;;;;2.80;2.60;;;;;;;;;;2103604;28;20059;-63
2023/09/26 03:53:48;;;;;;;3.20;2.88;;;;;;;;;;2104841;28;20488;-63
2023/09/26 03:55:06;;;;;;;3.35;3.10;;;;;;;;;;2105245;28;20036;-61
2023/09/26 03:56:25;;;;;;;3.35;2.78;;;;;;;;;;2103696;28;20036;-63
2023/09/26 03:57:44;;;;;;;2.92;2.63;;;;;;;;;;2104022;28;20478;-63
2023/09/26 03:59:03;;;;;;;3.28;2.97;;;;;;;;;;2103493;28;20068;-63
2023/09/26 04:00:26;;;;;;;4.68;2.97;;;;;;;;;;2104487;28;20024;-62
2023/09/26 04:01:47;;;;;;;5.50;3.22;;;;;;;;;;2103517;28;20028;-62
2023/09/26 04:03:06;;;;;;;3.25;3.05;;;;;;;;;;2105275;28;20028;-63
2023/09/26 04:04:25;;;;;;;5.13;3.40;;;;;;;;;;2102673;28;20024;-62
2023/09/26 04:05:47;;;;;;;4.43;3.15;;;;;;;;;;2106018;28;20024;-62
2023/09/26 04:07:06;;;;;;;3.22;3.03;;;;;;;;;;2103606;28;20029;-63
2023/09/26 04:08:25;;;;;;;4.18;3.20;;;;;;;;;;2105060;28;20059;-62
2023/09/26 04:09:44;;;;;;;3.85;3.20;;;;;;;;;;2099941;28;20500;-62
2023/09/26 04:11:03;;;;;;;3.60;3.25;;;;;;;;;;2104961;28;20067;-64
2023/09/26 04:12:22;;;;;;;5.30;3.00;;;;;;;;;;2104988;28;20032;-63
2023/09/26 04:13:41;;;;;;;4.80;2.97;;;;;;;;;;2105624;28;20694;-62
2023/09/26 04:15:00;;;;;;;3.92;3.10;;;;;;;;;;2105188;28;20035;-62
2023/09/26 04:16:19;;;;;;;4.43;3.00;;;;;;;;;;2103744;28;20484;-63
2023/09/26 04:17:39;;;;;;;3.80;3.50;;;;;;;;;;2104659;28;20036;-63
2023/09/26 04:18:58;;;;;;;4.18;3.17;;;;;;;;;;2104955;28;20020;-63
2023/09/26 04:20:19;;;;;;;3.35;2.92;;;;;;;;;;2106344;28;20024;-63
2023/09/26 04:21:38;;;;;;;3.70;3.30;;;;;;;;;;2104441;28;20028;-63
2023/09/26 04:22:58;;;;;;;4.45;3.22;;;;;;;;;;2104407;28;20485;-63
2023/09/26 04:24:16;;;;;;;2.97;2.78;;;;;;;;;;2104609;28;20074;-63
2023/09/26 04:25:35;;;;;;;4.55;3.20;;;;;;;;;;2104198;28;20035;-63
2023/09/26 04:26:54;;;;;;;2.83;2.63;;;;;;;;;;2099400;28;20028;-63
2023/09/26 04:28:13;;;;;;;3.60;3.28;;;;;;;;;;2103791;28;20024;-63
2023/09/26 04:29:35;;;;;;;3.38;3.13;;;;;;;;;;2102242;28;20032;-63
2023/09/26 04:30:54;;;;;;;3.92;3.30;;;;;;;;;;2104608;28;20039;-62
2023/09/26 04:32:13;;;;;;;3.65;3.25;;;;;;;;;;2103965;28;20489;-65
2023/09/26 04:33:33;;;;;;;4.50;3.28;;;;;;;;;;2104520;28;20055;-63
2023/09/26 04:34:52;;;;;;;3.55;3.25;;;;;;;;;;2102847;28;20016;-62
2023/09/26 04:36:11;;;;;;;3.13;2.92;;;;;;;;;;2103061;28;20089;-62
2023/09/26 04:37:30;;;;;;;4.68;3.38;;;;;;;;;;2103845;28;20031;-62
2023/09/26 04:38:49;;;;;;;4.10;3.42;;;;;;;;;;2100295;28;20071;-62
2023/09/26 04:40:11;;;;;;;3.88;3.50;;;;;;;;;;2104388;28;20028;-62
2023/09/26 04:41:30;;;;;;;5.47;3.47;;;;;;;;;;2104560;28;20516;-62
2023/09/26 04:42:49;;;;;;;4.60;3.80;;;;;;;;;;2102785;28;20032;-62
2023/09/26 04:44:08;;;;;;;5.07;3.35;;;;;;;;;;2106248;28;20074;-62
2023/09/26 04:45:31;;;;;;;3.10;2.90;;;;;;;;;;2104447;28;20024;-62
2023/09/26 04:46:49;;;;;;;3.85;3.50;;;;;;;;;;2103652;28;20028;-62
2023/09/26 04:48:08;;;;;;;4.00;3.72;;;;;;;;;;2105076;28;20028;-62
2023/09/26 04:49:27;;;;;;;4.10;3.20;;;;;;;;;;2102801;28;20036;-63
2023/09/26 04:50:48;;;;;;;3.95;3.53;;;;;;;;;;2103195;28;20145;-62
2023/09/26 04:52:07;;;;;;;5.35;4.03;;;;;;;;;;2103398;28;20036;-62
2023/09/26 04:53:26;;;;;;;3.80;3.20;;;;;;;;;;2103966;28;20121;-62
2023/09/26 04:54:45;;;;;;;4.18;3.40;;;;;;;;;;2101605;28;20024;-62
2023/09/26 04:56:04;;;;;;;3.63;3.33;;;;;;;;;;2103759;28;20032;-63
2023/09/26 04:57:23;;;;;;;4.30;4.00;;;;;;;;;;2103263;28;20036;-63
2023/09/26 04:58:42;;;;;;;5.03;3.67;;;;;;;;;;2103236;28;20444;-62
2023/09/26 05:00:05;;;;;;;3.42;2.90;;;;;;;;;;2103263;28;20032;-63
2023/09/26 05:01:25;;;;;;;3.83;3.40;;;;;;;;;;2102608;28;20464;-63
2023/09/26 05:02:45;;;;;;;3.30;3.05;;;;;;;;;;2102763;28;20504;-63
2023/09/26 05:04:04;;;;;;;4.47;3.40;;;;;;;;;;2101688;28;20124;-62
2023/09/26 05:05:24;;;;;;;3.17;2.97;;;;;;;;;;2102642;28;20051;-64
2023/09/26 05:06:43;;;;;;;3.80;3.50;;;;;;;;;;2103433;28;20500;-62
2023/09/26 05:08:02;;;;;;;7.60;3.83;;;;;;;;;;2099653;28;20032;-63
2023/09/26 05:09:21;;;;;;;3.15;2.92;;;;;;;;;;2103256;28;20485;-62
2023/09/26 05:10:41;;;;;;;3.70;3.40;;;;;;;;;;2101501;28;20031;-62
2023/09/26 05:12:00;;;;;;;5.32;3.25;;;;;;;;;;2104157;28;20032;-63
2023/09/26 05:13:19;;;;;;;3.83;3.55;;;;;;;;;;2100201;28;20051;-66
2023/09/26 05:14:38;;;;;;;3.92;3.58;;;;;;;;;;2102642;28;20413;-62
2023/09/26 05:15:57;;;;;;;3.22;2.92;;;;;;;;;;2100143;28;20043;-65
2023/09/26 05:17:16;;;;;;;5.43;3.88;;;;;;;;;;2103656;28;20028;-62
2023/09/26 05:18:36;;;;;;;5.22;3.90;;;;;;;;;;2103750;28;20032;-63
2023/09/26 05:19:54;;;;;;;4.32;3.45;;;;;;;;;;2103116;28;20085;-62
2023/09/26 05:21:13;;;;;;;4.75;3.70;;;;;;;;;;2103525;28;20039;-62
2023/09/26 05:22:32;;;;;;;5.05;3.90;;;;;;;;;;2101120;28;20028;-62
2023/09/26 05:23:52;;;;;;;7.13;3.30;;;;;;;;;;2102838;28;20043;-61
2023/09/26 05:25:10;;;;;;;3.85;3.63;;;;;;;;;;2102641;28;20024;-62
2023/09/26 05:26:29;;;;;;;4.57;3.30;;;;;;;;;;2103001;28;20024;-62
2023/09/26 05:27:48;;;;;;;4.45;4.07;;;;;;;;;;2103250;28;20024;-63
2023/09/26 05:29:07;;;;;;;5.68;3.75;;;;;;;;;;2104105;28;20036;-63
2023/09/26 05:30:26;;;;;;;5.40;3.60;;;;;;;;;;2103304;28;20032;-62
2023/09/26 05:31:46;;;;;;;3.45;3.15;;;;;;;;;;2104633;28;20102;-63
2023/09/26 05:33:05;;;;;;;5.13;3.60;;;;;;;;;;2100964;28;20509;-63
2023/09/26 05:34:24;;;;;;;5.35;4.03;;;;;;;;;;2100588;28;20491;-63
2023/09/26 05:35:43;;;;;;;3.63;3.33;;;;;;;;;;2102179;28;20477;-63
2023/09/26 05:37:02;;;;;;;3.67;3.00;;;;;;;;;;2103903;28;20059;-63
2023/09/26 05:38:22;;;;;;;4.13;3.72;;;;;;;;;;2102360;28;20107;-63
2023/09/26 05:39:41;;;;;;;4.47;3.53;;;;;;;;;;2103562;28;20043;-63
2023/09/26 05:41:00;;;;;;;4.85;3.70;;;;;;;;;;2100886;28;20034;-65
2023/09/26 05:42:18;;;;;;;4.88;3.42;;;;;;;;;;2103122;28;20489;-63
2023/09/26 05:43:37;;;;;;;3.28;3.03;;;;;;;;;;2103070;28;20024;-63
2023/09/26 05:44:56;;;;;;;5.22;3.83;;;;;;;;;;2103922;28;20021;-62
2023/09/26 05:46:16;;;;;;;4.50;3.38;;;;;;;;;;2101602;28;20479;-62
2023/09/26 05:47:35;;;;;;;3.78;3.42;;;;;;;;;;2102184;28;20508;-62
2023/09/26 05:48:54;;;;;;;3.67;3.28;;;;;;;;;;2103042;28;20040;-63
2023/09/26 05:50:13;;;;;;;4.97;3.33;;;;;;;;;;2104144;28;20020;-63
2023/09/26 05:51:32;;;;;;;6.15;3.17;;;;;;;;;;2103349;28;20056;-62
2023/09/26 05:52:51;;;;;;;3.65;3.35;;;;;;;;;;2101748;28;20024;-62
2023/09/26 05:54:10;;;;;;;3.40;3.20;;;;;;;;;;2104175;28;20107;-64
2023/09/26 05:55:29;;;;;;;3.38;3.15;;;;;;;;;;2102371;28;20032;-62
2023/09/26 05:56:48;;;;;;;3.60;3.08;;;;;;;;;;2103887;28;20013;-62
2023/09/26 05:58:07;;;;;;;5.75;3.30;;;;;;;;;;2104475;28;20028;-63
2023/09/26 05:59:26;;;;;;;3.08;2.60;;;;;;;;;;2103068;28;20029;-62
2023/09/26 06:00:48;;;;;;;4.55;2.97;;;;;;;;;;2103784;28;20020;-62
2023/09/26 06:02:08;;;;;;;3.72;3.42;;;;;;;;;;2104167;28;20032;-62
2023/09/26 06:03:27;;;;;;;3.92;3.28;;;;;;;;;;2103043;28;20024;-62
2023/09/26 06:04:46;;;;;;;6.65;3.25;;;;;;;;;;2101693;28;20024;-62
2023/09/26 06:06:05;;;;;;;3.35;3.08;;;;;;;;;;2104508;28;20484;-62
2023/09/26 06:07:26;;;;;;;7.30;3.22;;;;;;;;;;2102498;28;20444;-63
2023/09/26 06:08:46;;;;;;;3.67;3.40;;;;;;;;;;2103945;28;20028;-62
2023/09/26 06:10:05;;;;;;;5.00;3.22;;;;;;;;;;2103485;28;20028;-62
2023/09/26 06:11:24;;;;;;;3.40;3.20;;;;;;;;;;2104068;28;20496;-62
2023/09/26 06:12:44;;;;;;;4.90;3.20;;;;;;;;;;2103391;28;20032;-62
2023/09/26 06:14:03;;;;;;;4.55;3.05;;;;;;;;;;2104115;28;20028;-63
2023/09/26 06:15:22;;;;;;;4.75;3.30;;;;;;;;;;2104978;28;20028;-63
2023/09/26 06:16:42;;;;;;;4.57;3.08;;;;;;;;;;2103664;28;20481;-62
2023/09/26 06:18:01;;;;;;;3.60;3.17;;;;;;;;;;2102930;28;20037;-63
2023/09/26 06:19:20;;;;;;;7.72;3.33;;;;;;;;;;2104615;28;20408;-63
2023/09/26 06:20:40;;;;;;;4.07;3.25;;;;;;;;;;2104063;28;20017;-63
2023/09/26 06:21:59;;;;;;;3.67;3.40;;;;;;;;;;2101358;28;20157;-63
2023/09/26 06:23:18;;;;;;;4.15;3.17;;;;;;;;;;2104063;28;20024;-62
2023/09/26 06:24:36;;;;;;;3.90;3.60;;;;;;;;;;2105039;28;20020;-63
2023/09/26 06:25:56;;;;;;;3.58;3.22;;;;;;;;;;2104050;28;20016;-62
2023/09/26 06:27:14;;;;;;;5.13;3.47;;;;;;;;;;2103658;28;20388;-62
2023/09/26 06:28:34;;;;;;;3.75;3.55;;;;;;;;;;2105745;28;20392;-63
2023/09/26 06:29:53;;;;;;;4.47;3.40;;;;;;;;;;2106214;28;20036;-63
2023/09/26 06:31:11;;;;;;;3.55;3.25;;;;;;;;;;2106792;28;20032;-62
2023/09/26 06:32:31;;;;;;;6.93;3.55;;;;;;;;;;2105002;28;20043;-63
2023/09/26 06:33:50;;;;;;;5.10;3.10;;;;;;;;;;2104671;28;20457;-62
2023/09/26 06:35:10;;;;;;;3.88;3.00;;;;;;;;;;2105405;28;20037;-62
2023/09/26 06:36:31;;;;;;;4.80;3.30;;;;;;;;;;2105866;28;20068;-62
2023/09/26 06:37:50;;;;;;;4.05;3.60;;;;;;;;;;2106277;28;21270;-63
2023/09/26 06:39:11;;;;;;;4.10;3.28;;;;;;;;;;2107058;28;20031;-62
2023/09/26 06:40:29;;;;;;;6.15;3.63;;;;;;;;;;2105086;28;20028;-62
2023/09/26 06:41:48;;;;;;;4.22;3.40;;;;;;;;;;2105016;28;20024;-63
2023/09/26 06:43:07;;;;;;;5.93;3.05;;;;;;;;;;2106536;28;20020;-62
2023/09/26 06:44:28;;;;;;;4.28;3.38;;;;;;;;;;2107410;28;20911;-62
2023/09/26 06:45:48;;;;;;;3.70;3.30;;;;;;;;;;2106265;28;20028;-62
2023/09/26 06:47:07;;;;;;;3.70;3.38;;;;;;;;;;2105897;28;20036;-62
2023/09/26 06:48:26;;;;;;;3.50;3.08;;;;;;;;;;2104047;28;20028;-63
2023/09/26 06:49:46;;;;;;;4.88;3.28;;;;;;;;;;2103875;28;20032;-61
2023/09/26 06:51:05;;;;;;;3.60;3.30;;;;;;;;;;2105873;28;20032;-65
2023/09/26 06:52:24;;;;;;;5.38;4.30;;;;;;;;;;2105038;28;20040;-62
2023/09/26 06:53:43;;;;;;;4.05;3.75;;;;;;;;;;2104737;28;20056;-62
2023/09/26 06:55:09;;;;;;;4.15;3.72;;;;;;;;;;2105069;28;21102;-62
2023/09/26 06:56:28;;;;;;;5.88;3.70;;;;;;;;;;2106181;28;20499;-62
2023/09/26 06:57:47;;;;;;;4.40;3.17;;;;;;;;;;2105258;28;20056;-62
2023/09/26 06:59:07;;;;;;;5.65;3.53;;;;;;;;;;2105064;28;20159;-62
2023/09/26 07:00:26;;;;;;;5.68;4.07;;;;;;;;;;2103501;28;20024;-63
2023/09/26 07:01:45;;;;;;;5.43;3.60;;;;;;;;;;2106253;28;20024;-63
2023/09/26 07:03:05;;;;;;;6.50;4.80;;;;;;;;;;2103195;28;20024;-62
2023/09/26 07:04:24;;;;;;;4.63;3.22;;;;;;;;;;2105520;28;20809;-63
2023/09/26 07:05:44;;;;;;;4.53;3.83;;;;;;;;;;2106455;28;20438;-61
2023/09/26 07:07:03;;;;;;;3.50;3.30;;;;;;;;;;2106014;28;20032;-62
2023/09/26 07:08:22;;;;;;;4.10;3.20;;;;;;;;;;2105761;28;20476;-61
2023/09/26 07:09:41;;;;;;;4.30;3.40;;;;;;;;;;2104846;28;20044;-63
2023/09/26 07:11:03;;;;;;;9.35;3.92;;;;;;;;;;2105874;28;20028;-62
2023/09/26 07:12:22;;;;;;;3.92;3.67;;;;;;;;;;2105635;28;20024;-62
2023/09/26 07:13:41;;;;;;;4.82;3.65;;;;;;;;;;2105774;28;20503;-62
2023/09/26 07:15:00;;;;;;;6.25;4.25;;;;;;;;;;2105878;28;20028;-61
2023/09/26 07:16:20;;;;;;;5.28;4.22;;;;;;;;;;2103934;28;20032;-61
2023/09/26 07:17:38;;;;;;;3.85;3.60;;;;;;;;;;2104056;28;20032;-61
2023/09/26 07:18:57;;;;;;;6.28;3.78;;;;;;;;;;2105544;28;20480;-62
2023/09/26 07:20:16;;;;;;;4.03;3.60;;;;;;;;;;2105998;28;20040;-62
2023/09/26 07:21:35;;;;;;;3.65;3.35;;;;;;;;;;2103849;28;20028;-62
2023/09/26 07:22:54;;;;;;;4.40;3.60;;;;;;;;;;2104951;28;20024;-62
2023/09/26 07:24:13;;;;;;;4.20;3.05;;;;;;;;;;2105930;28;20055;-62
2023/09/26 07:25:32;;;;;;;5.53;3.45;;;;;;;;;;2106852;28;20070;-62
2023/09/26 07:26:51;;;;;;;3.67;3.40;;;;;;;;;;2106387;28;20048;-62
2023/09/26 07:28:10;;;;;;;4.90;3.88;;;;;;;;;;2105063;28;20056;-61
2023/09/26 07:29:29;;;;;;;4.30;3.72;;;;;;;;;;2104579;28;20044;-61
2023/09/26 07:30:48;;;;;;;4.05;3.30;;;;;;;;;;2105457;28;20035;-61
2023/09/26 07:32:07;;;;;;;3.50;3.20;;;;;;;;;;2105752;28;20032;-62
2023/09/26 07:33:28;;;;;;;3.67;3.03;;;;;;;;;;2104724;28;20031;-62
2023/09/26 07:34:47;;;;;;;4.10;3.13;;;;;;;;;;2105287;28;20053;-62
2023/09/26 07:36:07;;;;;;;4.38;3.65;;;;;;;;;;2105142;28;20036;-64
2023/09/26 07:37:26;;;;;;;3.35;3.10;;;;;;;;;;2103939;28;20032;-62
2023/09/26 07:38:45;;;;;;;3.47;3.15;;;;;;;;;;2104277;28;20028;-62
2023/09/26 07:40:08;;;;;;;7.03;3.70;;;;;;;;;;2105314;28;20032;-63
2023/09/26 07:41:27;;;;;;;7.10;3.47;;;;;;;;;;2104802;28;20020;-63
2023/09/26 07:42:46;;;;;;;5.97;3.60;;;;;;;;;;2104779;28;20028;-63
2023/09/26 07:44:05;;;;;;;5.63;3.53;;;;;;;;;;2105200;28;20063;-63
2023/09/26 07:45:24;;;;;;;3.67;3.17;;;;;;;;;;2105338;28;20033;-63
2023/09/26 07:46:43;;;;;;;5.45;3.67;;;;;;;;;;2106926;28;20036;-63
2023/09/26 07:48:02;;;;;;;3.95;3.53;;;;;;;;;;2105697;28;20028;-63
2023/09/26 07:49:21;;;;;;;3.70;3.40;;;;;;;;;;2104561;28;20032;-63
2023/09/26 07:50:40;;;;;;;3.53;3.22;;;;;;;;;;2104498;28;20024;-63
2023/09/26 07:51:59;;;;;;;9.25;3.17;;;;;;;;;;2105657;28;20451;-63
2023/09/26 07:53:18;;;;;;;4.10;3.70;;;;;;;;;;2105277;28;20024;-63
2023/09/26 07:54:37;;;;;;;4.20;3.67;;;;;;;;;;2105536;28;20025;-63
2023/09/26 07:55:56;;;;;;;4.57;3.42;;;;;;;;;;2104899;28;20029;-63